Prairie Hill, Texas
Current Conditions -  °F | °C
As of 6:15 AM on Sunday 23 Nov 2014 (Local Time) from KLXY Reporting Station
Overcast Overcast  
Wind Chill: 58°   Ceiling: 600
Heat Index: 58°   Visibility: 10mi
Dew Point: 58°   Wind: 5mph
Humidity: 98%   Direction: 180°S
Pressure: 29.61"   Gusts: NA
Location:  31.66°N, 96.79°W
Report Text: KLXY 231215Z AUTO 18004KT 10SM OVC006 15/14 A2961 RMK AO2 T01450142
Loading
Personal Weather Stations






























Interactive Weather Map New forecast layout! Learn more

10-Day Weather Forecast

Advertisements
Track Severe Weather on mobile